• Join FlightAware (Why Join?)
  • Login
  • US Flag 
11:49AM EDT


 

Airport Tracker/Info


-or-


 

Live Flight TrackerFlight Track Log ✈ RPA3321 ✈ 21-Aug-2013 ✈ KALB - KDCA

Flight Track Log - Related Links

Times and Time Zones

All times are in EDT time to prevent confusion due to time zone crossing. See the RPA3321 flight status page for this flight to view local times or setup timezone preferences in your user account.

Time Position Orientation Groundspeed Altitude Reporting Facility
EDT Latitude Longitude Course Direction KTS MPH feet Rate Location/Type
05:41AM 42.7694 -73.8089 118° Southeast 146 168 1,500  Level Boston Center
05:42AM 42.8169 -73.8328 340° North 213 245 3,700 2,580 Climbing Boston Center
05:43AM 42.5116 -74.0128 171° South  Level Estimated
05:43AM 42.8642 -73.8933 317° Northwest 245 282 6,600  Level Boston Center
05:44AM 42.4324 -74.0827 180° South  Level Estimated
05:44AM 42.9133 -73.9625 314° West 269 310 9,800  Level Boston Center
05:45AM 42.3531 -74.1524 172° South  Level Estimated
05:45AM 42.9261 -74.0847 278° West 289 333 12,600  Level Boston Center
05:46AM 42.3085 -74.0396 118° Southeast  Level FlightAware Approximate
05:46AM 42.9331 -74.1925 275° West 308 354 15,300  Level Boston Center
05:47AM 42.9061 -74.3167 254° West 318 366 17,700 2,220 Climbing Boston Center
05:48AM 42.8147 -74.2969 171° South 251 289 19,800 1,980 Climbing Boston Center
05:49AM 42.7136 -74.2317 155° Southeast 310 357 21,800 2,220 Climbing Boston Center
05:50AM 42.6164 -74.1694 155° Southeast 346 398 24,200 2,100 Climbing Boston Center
05:51AM 42.5106 -74.1442 170° South 364 419 26,000 840 Climbing Boston Center
05:52AM 42.4006 -74.1158 169° South 389 448 26,000  Level Boston Center
05:53AM 42.2925 -74.0875 169° South 401 461 26,000  Level Boston Center
05:54AM 42.1825 -74.0622 170° South 401 461 26,000  Level Boston Center
05:55AM 42.0697 -74.0789 186° South 406 467 26,000  Level Boston Center
05:56AM 41.9608 -74.1069 191° South 406 467 26,000  Level Boston Center
05:58AM 41.7647 -74.1556 190° South 406 467 26,000  Level New York Center
05:59AM 41.6558 -74.1806 190° South 406 467 26,000  Level New York Center
06:00AM 41.5508 -74.2111 192° South 400 460 26,000  Level New York Center
06:01AM 41.4378 -74.2386 190° South 400 460 26,000  Level New York Center
06:02AM 41.3306 -74.2661 191° South 400 460 26,000  Level New York Center
06:03AM 41.2194 -74.2933 190° South 400 460 26,000  Level New York Center
06:04AM 41.1125 -74.3181 190° South 405 466 26,000  Level New York Center
06:05AM 41.0011 -74.3481 191° South 405 466 26,000  Level New York Center
06:06AM 40.8922 -74.3725 190° South 405 466 26,000  Level New York Center
06:07AM 40.7864 -74.4189 198° South 405 466 26,000  Level New York Center
06:08AM 40.7122 -74.5300 229° Southwest 387 445 26,000  Level New York Center
06:09AM 40.6439 -74.6411 231° Southwest 387 445 26,000  Level New York Center
06:10AM 40.5756 -74.7547 232° Southwest 393 452 26,000  Level New York Center
06:11AM 40.4992 -74.8594 226° Southwest 399 459 26,000  Level New York Center
06:12AM 40.4244 -74.9694 228° Southwest 404 465 26,000  Level New York Center
06:13AM 40.3497 -75.0739 227° Southwest 404 465 26,000 -300 Level New York Center
06:14AM 40.2750 -75.1808 228° Southwest 404 465 25,400 -900 Descending New York Center
06:15AM 40.1981 -75.2872 227° Southwest 404 465 24,300 -1,140 Descending New York Center
06:16AM 40.1272 -75.3886 228° Southwest 394 453 23,200 -1,140 Descending New York Center
06:17AM 40.0525 -75.4894 226° Southwest 394 453 22,100 -600 Descending New York Center
06:18AM 39.9839 -75.5878 228° Southwest 389 448 22,000 -60 Descending New York Center
06:19AM 39.9131 -75.6858 227° Southwest 384 442 22,000  Level New York Center
06:20AM 39.8481 -75.7919 231° Southwest 379 436 22,000 -480 Level New York Center
06:21AM 39.7789 -75.9006 230° Southwest 386 444 21,100 -1,440 Descending New York Center
06:23AM 39.6167 -76.1500 230° Southwest 394 453 17,600 -1,920 Descending Potomac TRACON
06:24AM 39.5500 -76.2500 229° Southwest 373 429 15,200 -2,400 Descending Potomac TRACON
06:25AM 39.5000 -76.3500 237° Southwest 367 422 13,100 -2,160 Descending Potomac TRACON
06:26AM 39.4167 -76.4500 223° Southwest 356 410 10,900 -1,500 Descending Potomac TRACON
06:27AM 39.3500 -76.5167 218° Southwest 348 400 10,000 -480 Descending Potomac TRACON
06:28AM 39.2667 -76.5833 212° Southwest 327 376 10,000  Level Potomac TRACON
06:29AM 39.2000 -76.6333 210° Southwest 294 338 10,000  Level Potomac TRACON
06:29AM 39.1500 -76.6833 218° Southwest 290 334 10,000  Level Potomac TRACON
06:30AM 39.1167 -76.7667 243° Southwest 289 333 10,000 -540 Level Potomac TRACON
06:31AM 39.0833 -76.8667 247° West 280 322 9,000 -1,440 Descending Potomac TRACON
06:32AM 39.0667 -76.9500 256° West 267 307 7,200 -1,860 Descending Potomac TRACON
06:33AM 39.0333 -77.0500 247° West 258 297 5,300 -1,740 Descending Potomac TRACON
06:34AM 39.0167 -77.1333 256° West 233 268 3,800 -1,200 Descending Potomac TRACON
06:35AM 38.9667 -77.1667 207° Southwest 212 244 3,000 -1,020 Descending Potomac TRACON
06:36AM 38.9333 -77.1167 131° Southeast 182 209 1,800 -1,080 Descending Potomac TRACON
06:37AM 38.9000 -77.0833 142° Southeast 161 185 1,000 -780 Descending Potomac TRACON
06:38AM 38.8833 -77.0500 123° Southeast 135 155 400 -600 Descending Potomac TRACON